createdAt,value
2017-11-04T00:00:21.466Z,1005.01
2017-11-04T00:02:14.348Z,1005.06
2017-11-04T00:03:14.322Z,1005.01
2017-11-04T00:05:07.199Z,1004.96
2017-11-04T00:06:07.174Z,1004.95
2017-11-04T00:08:00.055Z,1004.86
2017-11-04T00:09:00.031Z,1004.84
2017-11-04T00:10:52.909Z,1004.84
2017-11-04T00:11:52.903Z,1004.83
2017-11-04T00:13:45.759Z,1004.86
2017-11-04T00:14:45.746Z,1004.85
2017-11-04T00:16:38.619Z,1004.87
2017-11-04T00:17:38.592Z,1004.84
2017-11-04T00:19:31.459Z,1004.77
2017-11-04T00:20:31.448Z,1004.75
2017-11-04T00:22:24.326Z,1004.75
2017-11-04T00:23:24.303Z,1004.80
2017-11-04T00:25:17.185Z,1004.78
2017-11-04T00:26:17.157Z,1004.77
2017-11-04T00:28:10.020Z,1004.80
2017-11-04T00:29:10.008Z,1004.79
2017-11-04T00:31:02.888Z,1004.82
2017-11-04T00:32:02.860Z,1004.84
2017-11-04T00:33:55.725Z,1004.83
2017-11-04T00:34:55.716Z,1004.85
2017-11-04T00:36:48.603Z,1004.82
2017-11-04T00:37:48.565Z,1004.83
2017-11-04T00:39:41.436Z,1004.82
2017-11-04T00:40:41.422Z,1004.86
2017-11-04T00:42:34.303Z,1004.82
2017-11-04T00:43:34.275Z,1004.80
2017-11-04T00:45:27.153Z,1004.80
2017-11-04T00:46:27.127Z,1004.79
2017-11-04T00:48:19.987Z,1004.75
2017-11-04T00:49:19.992Z,1004.71
2017-11-04T00:51:12.862Z,1004.73
2017-11-04T00:52:12.829Z,1004.72
2017-11-04T00:54:05.698Z,1004.69
2017-11-04T00:55:05.688Z,1004.70
2017-11-04T00:56:58.570Z,1004.69
2017-11-04T00:57:58.544Z,1004.71
2017-11-04T00:59:51.405Z,1004.74
2017-11-04T01:00:51.396Z,1004.73
2017-11-04T01:02:44.273Z,1004.70
2017-11-04T01:03:44.245Z,1004.70
2017-11-04T01:05:37.122Z,1004.68
2017-11-04T01:06:37.097Z,1004.69
2017-11-04T01:08:29.962Z,1004.68
2017-11-04T01:09:29.955Z,1004.65
2017-11-04T01:11:22.832Z,1004.59
2017-11-04T01:12:22.807Z,1004.54
2017-11-04T01:14:15.714Z,1004.55
2017-11-04T01:15:15.667Z,1004.49
2017-11-04T01:17:08.547Z,1004.49
2017-11-04T01:18:08.517Z,1004.44
2017-11-04T01:20:01.383Z,1004.44
2017-11-04T01:21:01.371Z,1004.46
2017-11-04T01:22:54.253Z,1004.50
2017-11-04T01:23:54.225Z,1004.50
2017-11-04T01:25:47.105Z,1004.46
2017-11-04T01:26:47.077Z,1004.52
2017-11-04T01:28:39.942Z,1004.46
2017-11-04T01:29:39.932Z,1004.44
2017-11-04T01:31:32.824Z,1004.45
2017-11-04T01:32:32.793Z,1004.45
2017-11-04T01:34:25.652Z,1004.48
2017-11-04T01:35:25.645Z,1004.49
2017-11-04T01:37:18.521Z,1004.50
2017-11-04T01:38:18.490Z,1004.50
2017-11-04T01:40:11.353Z,1004.44
2017-11-04T01:41:11.345Z,1004.46
2017-11-04T01:43:04.224Z,1004.50
2017-11-04T01:44:04.200Z,1004.48
2017-11-04T01:45:57.079Z,1004.40
2017-11-04T01:46:57.050Z,1004.36
2017-11-04T01:48:49.912Z,1004.31
2017-11-04T01:49:49.901Z,1004.33
2017-11-04T01:51:42.785Z,1004.26
2017-11-04T01:52:42.757Z,1004.26
2017-11-04T01:54:35.624Z,1004.32
2017-11-04T01:55:35.617Z,1004.30
2017-11-04T01:57:28.493Z,1004.37
2017-11-04T01:58:28.468Z,1004.36
2017-11-04T02:00:21.341Z,1004.32
2017-11-04T02:01:21.325Z,1004.34
2017-11-04T02:03:14.205Z,1004.27
2017-11-04T02:04:14.175Z,1004.27
2017-11-04T02:06:07.060Z,1004.27
2017-11-04T02:07:07.031Z,1004.27
2017-11-04T02:08:59.892Z,1004.26
2017-11-04T02:09:59.887Z,1004.28
2017-11-04T02:11:52.762Z,1004.22
2017-11-04T02:12:52.739Z,1004.18
2017-11-04T02:14:45.605Z,1004.24
2017-11-04T02:15:45.596Z,1004.21
2017-11-04T02:17:38.488Z,1004.16
2017-11-04T02:18:38.461Z,1004.17
2017-11-04T02:20:31.322Z,1004.17
2017-11-04T02:21:31.312Z,1004.15
2017-11-04T02:23:24.193Z,1004.16
2017-11-04T02:24:24.168Z,1004.13
2017-11-04T02:26:17.063Z,1004.13
2017-11-04T02:27:17.024Z,1004.11
2017-11-04T02:29:09.883Z,1004.10
2017-11-04T02:30:09.875Z,1004.07
2017-11-04T02:32:02.764Z,1004.05
2017-11-04T02:33:02.747Z,1004.01
2017-11-04T02:34:55.592Z,1003.99
2017-11-04T02:35:55.590Z,1003.99
2017-11-04T02:37:48.462Z,1003.92
2017-11-04T02:38:48.435Z,1003.89
2017-11-04T02:40:41.318Z,1003.95
2017-11-04T02:41:41.286Z,1003.93
2017-11-04T02:43:34.162Z,1003.96
2017-11-04T02:44:34.133Z,1003.92
2017-11-04T02:46:27.014Z,1003.97
2017-11-04T02:47:26.987Z,1003.97
2017-11-04T02:49:19.867Z,1003.96
2017-11-04T02:50:19.863Z,1003.93
2017-11-04T02:52:12.747Z,1003.90
2017-11-04T02:53:12.723Z,1003.91
2017-11-04T02:55:05.588Z,1003.90
2017-11-04T02:56:05.575Z,1003.91
2017-11-04T02:57:58.455Z,1003.88
2017-11-04T02:58:58.430Z,1003.87
2017-11-04T03:00:51.310Z,1003.85
2017-11-04T03:01:51.286Z,1003.86
2017-11-04T03:03:44.141Z,1003.83
2017-11-04T03:04:44.133Z,1003.82
2017-11-04T03:06:37.011Z,1003.83
2017-11-04T03:07:36.982Z,1003.83
2017-11-04T03:09:29.844Z,1003.79
2017-11-04T03:10:29.838Z,1003.80
2017-11-04T03:12:22.711Z,1003.84
2017-11-04T03:13:22.684Z,1003.80
2017-11-04T03:15:15.547Z,1003.78
2017-11-04T03:16:15.537Z,1003.78
2017-11-04T03:18:08.424Z,1003.74
2017-11-04T03:19:08.396Z,1003.72
2017-11-04T03:21:01.275Z,1003.69
2017-11-04T03:22:01.248Z,1003.67
2017-11-04T03:23:54.108Z,1003.62
2017-11-04T03:24:54.097Z,1003.66
2017-11-04T03:26:46.982Z,1003.71
2017-11-04T03:27:46.956Z,1003.73
2017-11-04T03:29:39.815Z,1003.81
2017-11-04T03:30:39.808Z,1003.81
2017-11-04T03:32:32.695Z,1003.74
2017-11-04T03:33:32.662Z,1003.78
2017-11-04T03:35:25.526Z,1003.81
2017-11-04T03:36:25.516Z,1003.81
2017-11-04T03:38:18.406Z,1003.82
2017-11-04T03:39:18.374Z,1003.79
2017-11-04T03:41:11.264Z,1003.81
2017-11-04T03:42:11.247Z,1003.77
2017-11-04T03:44:04.098Z,1003.78
2017-11-04T03:45:04.091Z,1003.75
2017-11-04T03:46:56.967Z,1003.81
2017-11-04T03:47:56.943Z,1003.77
2017-11-04T03:49:49.802Z,1003.78
2017-11-04T03:50:49.796Z,1003.81
2017-11-04T03:52:42.676Z,1003.72
2017-11-04T03:53:42.645Z,1003.73
2017-11-04T03:55:35.507Z,1003.73
2017-11-04T03:56:35.497Z,1003.74
2017-11-04T03:58:28.382Z,1003.72
2017-11-04T03:59:28.352Z,1003.78
2017-11-04T04:01:21.227Z,1003.77
2017-11-04T04:02:21.200Z,1003.77
2017-11-04T04:04:14.063Z,1003.80
2017-11-04T04:05:14.057Z,1003.80
2017-11-04T04:07:06.932Z,1003.75
2017-11-04T04:08:06.904Z,1003.73
2017-11-04T04:09:59.767Z,1003.73
2017-11-04T04:10:59.763Z,1003.75
2017-11-04T04:12:53.394Z,1003.74
2017-11-04T04:13:52.612Z,1003.76
2017-11-04T04:15:45.477Z,1003.74
2017-11-04T04:16:45.464Z,1003.76
2017-11-04T04:18:38.374Z,1003.77
2017-11-04T04:19:38.344Z,1003.74
2017-11-04T04:21:31.220Z,1003.69
2017-11-04T04:22:31.192Z,1003.69
2017-11-04T04:24:24.055Z,1003.71
2017-11-04T04:25:24.048Z,1003.67
2017-11-04T04:27:16.931Z,1003.71
2017-11-04T04:28:16.912Z,1003.70
2017-11-04T04:30:09.766Z,1003.72
2017-11-04T04:31:09.763Z,1003.72
2017-11-04T04:33:02.635Z,1003.66
2017-11-04T04:34:02.611Z,1003.62
2017-11-04T04:35:55.474Z,1003.67
2017-11-04T04:36:55.459Z,1003.66
2017-11-04T04:38:48.336Z,1003.57
2017-11-04T04:39:48.314Z,1003.56
2017-11-04T04:41:41.188Z,1003.67
2017-11-04T04:42:41.165Z,1003.65
2017-11-04T04:44:34.023Z,1003.67
2017-11-04T04:45:34.019Z,1003.63
2017-11-04T04:47:26.889Z,1003.56
2017-11-04T04:48:26.866Z,1003.57
2017-11-04T04:50:19.724Z,1003.59
2017-11-04T04:51:19.712Z,1003.57
2017-11-04T04:53:12.590Z,1003.56
2017-11-04T04:54:12.567Z,1003.48
2017-11-04T04:56:05.424Z,1003.48
2017-11-04T04:57:05.414Z,1003.43
2017-11-04T04:58:58.299Z,1003.40
2017-11-04T04:59:58.273Z,1003.40
2017-11-04T05:01:51.151Z,1003.34
2017-11-04T05:02:51.122Z,1003.34
2017-11-04T05:04:44.009Z,1003.31
2017-11-04T05:05:43.974Z,1003.37
2017-11-04T05:07:36.848Z,1003.39
2017-11-04T05:08:36.821Z,1003.31
2017-11-04T05:10:29.681Z,1003.30
2017-11-04T05:11:29.672Z,1003.35
2017-11-04T05:13:22.553Z,1003.38
2017-11-04T05:14:22.522Z,1003.39
2017-11-04T05:16:15.383Z,1003.33
2017-11-04T05:17:15.372Z,1003.36
2017-11-04T05:19:08.256Z,1003.35
2017-11-04T05:20:08.233Z,1003.29
2017-11-04T05:22:01.112Z,1003.27
2017-11-04T05:23:01.086Z,1003.25
2017-11-04T05:24:53.941Z,1003.26
2017-11-04T05:25:53.931Z,1003.23
2017-11-04T05:27:46.809Z,1003.28
2017-11-04T05:28:46.784Z,1003.27
2017-11-04T05:30:39.645Z,1003.30
2017-11-04T05:31:39.638Z,1003.33
2017-11-04T05:33:32.520Z,1003.19
2017-11-04T05:34:32.496Z,1003.16
2017-11-04T05:36:25.359Z,1003.18
2017-11-04T05:37:25.350Z,1003.17
2017-11-04T05:39:18.232Z,1003.16
2017-11-04T05:40:18.202Z,1003.16
2017-11-04T05:42:11.082Z,1003.17
2017-11-04T05:43:11.054Z,1003.21
2017-11-04T05:45:03.916Z,1003.20
2017-11-04T05:46:03.907Z,1003.21
2017-11-04T05:47:56.782Z,1003.24
2017-11-04T05:48:56.761Z,1003.22
2017-11-04T05:50:49.618Z,1003.25
2017-11-04T05:51:49.609Z,1003.23
2017-11-04T05:53:42.487Z,1003.27
2017-11-04T05:54:42.461Z,1003.27
2017-11-04T05:56:35.324Z,1003.26
2017-11-04T05:57:35.314Z,1003.32
2017-11-04T05:59:28.193Z,1003.27
2017-11-04T06:00:28.168Z,1003.28
2017-11-04T06:02:21.049Z,1003.27
2017-11-04T06:03:21.021Z,1003.30
2017-11-04T06:05:13.883Z,1003.27
2017-11-04T06:06:13.872Z,1003.29
2017-11-04T06:08:06.753Z,1003.26
2017-11-04T06:09:06.724Z,1003.30
2017-11-04T06:10:59.582Z,1003.32
2017-11-04T06:11:59.574Z,1003.33
2017-11-04T06:13:52.457Z,1003.38
2017-11-04T06:14:52.426Z,1003.37
2017-11-04T06:16:45.318Z,1003.38
2017-11-04T06:17:45.281Z,1003.36
2017-11-04T06:19:38.145Z,1003.34
2017-11-04T06:20:38.134Z,1003.35
2017-11-04T06:22:31.016Z,1003.35
2017-11-04T06:23:30.989Z,1003.32
2017-11-04T06:25:23.851Z,1003.36
2017-11-04T06:26:23.840Z,1003.41
2017-11-04T06:28:16.717Z,1003.39
2017-11-04T06:29:16.688Z,1003.39
2017-11-04T06:31:09.551Z,1003.38
2017-11-04T06:32:09.541Z,1003.36
2017-11-04T06:34:02.423Z,1003.42
2017-11-04T06:35:02.388Z,1003.43
2017-11-04T06:36:55.269Z,1003.49
2017-11-04T06:37:55.238Z,1003.48
2017-11-04T06:39:48.097Z,1003.51
2017-11-04T06:40:48.085Z,1003.48
2017-11-04T06:42:40.973Z,1003.50
2017-11-04T06:43:40.940Z,1003.45
2017-11-04T06:45:33.802Z,1003.48
2017-11-04T06:46:33.789Z,1003.46
2017-11-04T06:48:26.672Z,1003.42
2017-11-04T06:49:26.648Z,1003.41
2017-11-04T06:51:19.518Z,1003.43
2017-11-04T06:52:19.507Z,1003.41
2017-11-04T06:54:12.383Z,1003.37
2017-11-04T06:55:12.354Z,1003.35
2017-11-04T06:57:05.232Z,1003.29
2017-11-04T06:58:05.206Z,1003.23
2017-11-04T06:59:58.086Z,1003.22
2017-11-04T07:00:58.058Z,1003.27
2017-11-04T07:02:50.938Z,1003.27
2017-11-04T07:03:50.908Z,1003.27
2017-11-04T07:05:43.790Z,1003.29
2017-11-04T07:06:43.782Z,1003.39
2017-11-04T07:08:36.664Z,1003.42
2017-11-04T07:09:36.634Z,1003.41
2017-11-04T07:11:29.508Z,1003.39
2017-11-04T07:12:29.494Z,1003.42
2017-11-04T07:14:22.372Z,1003.40
2017-11-04T07:15:22.345Z,1003.36
2017-11-04T07:17:15.235Z,1003.35
2017-11-04T07:18:15.206Z,1003.35
2017-11-04T07:20:08.089Z,1003.35
2017-11-04T07:21:08.062Z,1003.35
2017-11-04T07:23:00.938Z,1003.37
2017-11-04T07:24:00.911Z,1003.37
2017-11-04T07:25:53.771Z,1003.38
2017-11-04T07:26:53.764Z,1003.33
2017-11-04T07:28:46.644Z,1003.25
2017-11-04T07:29:46.616Z,1003.33
2017-11-04T07:31:39.477Z,1003.37
2017-11-04T07:32:39.475Z,1003.40
2017-11-04T07:34:32.348Z,1003.43
2017-11-04T07:35:32.321Z,1003.45
2017-11-04T07:37:25.203Z,1003.47
2017-11-04T07:38:25.173Z,1003.48
2017-11-04T07:40:18.043Z,1003.48
2017-11-04T07:41:18.024Z,1003.50
2017-11-04T07:43:10.915Z,1003.49
2017-11-04T07:44:10.886Z,1003.53
2017-11-04T07:46:03.818Z,1003.55
2017-11-04T07:47:03.798Z,1003.59
2017-11-04T07:48:56.677Z,1003.63
2017-11-04T07:49:56.650Z,1003.68
2017-11-04T07:51:49.510Z,1003.74
2017-11-04T07:52:49.510Z,1003.69
2017-11-04T07:54:42.377Z,1003.68
2017-11-04T07:55:42.351Z,1003.70
2017-11-04T07:57:35.232Z,1003.69
2017-11-04T07:58:35.206Z,1003.66
2017-11-04T08:00:28.072Z,1003.67
2017-11-04T08:01:28.064Z,1003.64
2017-11-04T08:03:20.937Z,1003.62
2017-11-04T08:04:20.909Z,1003.63
2017-11-04T08:06:13.778Z,1003.65
2017-11-04T08:07:13.764Z,1003.65
2017-11-04T08:09:06.647Z,1003.61
2017-11-04T08:10:06.620Z,1003.62
2017-11-04T08:11:59.480Z,1003.59
2017-11-04T08:12:59.474Z,1003.59
2017-11-04T08:14:52.349Z,1003.58
2017-11-04T08:15:52.322Z,1003.51
2017-11-04T08:17:45.197Z,1003.53
2017-11-04T08:18:45.173Z,1003.54
2017-11-04T08:20:38.032Z,1003.54
2017-11-04T08:21:38.028Z,1003.52
2017-11-04T08:23:30.901Z,1003.54
2017-11-04T08:24:30.875Z,1003.52
2017-11-04T08:26:23.730Z,1003.49
2017-11-04T08:27:23.734Z,1003.55
2017-11-04T08:29:16.606Z,1003.51
2017-11-04T08:30:16.582Z,1003.52
2017-11-04T08:32:09.438Z,1003.46
2017-11-04T08:33:09.430Z,1003.46
2017-11-04T08:35:02.313Z,1003.46
2017-11-04T08:36:02.286Z,1003.44
2017-11-04T08:37:55.181Z,1003.48
2017-11-04T08:38:55.144Z,1003.44
2017-11-04T08:40:48.002Z,1003.42
2017-11-04T08:41:47.989Z,1003.42
2017-11-04T08:43:40.967Z,1003.39
2017-11-04T08:44:40.843Z,1003.36
2017-11-04T08:46:33.704Z,1003.35
2017-11-04T08:47:33.700Z,1003.38
2017-11-04T08:49:26.579Z,1003.41
2017-11-04T08:50:26.549Z,1003.39
2017-11-04T08:52:19.413Z,1003.38
2017-11-04T08:53:19.403Z,1003.43
2017-11-04T08:55:12.287Z,1003.44
2017-11-04T08:56:12.262Z,1003.46
2017-11-04T08:58:05.137Z,1003.42
2017-11-04T08:59:05.120Z,1003.40
2017-11-04T09:00:58.002Z,1003.43
2017-11-04T09:01:57.977Z,1003.44
2017-11-04T09:03:50.860Z,1003.41
2017-11-04T09:04:50.834Z,1003.40
2017-11-04T09:06:43.694Z,1003.37
2017-11-04T09:07:43.688Z,1003.42
2017-11-04T09:09:36.570Z,1003.44
2017-11-04T09:10:36.542Z,1003.36
2017-11-04T09:12:29.406Z,1003.35
2017-11-04T09:13:29.396Z,1003.37
2017-11-04T09:15:22.272Z,1003.24
2017-11-04T09:16:22.247Z,1003.28
2017-11-04T09:18:15.114Z,1003.29
2017-11-04T09:19:15.100Z,1003.34
2017-11-04T09:21:07.981Z,1003.28
2017-11-04T09:22:07.956Z,1003.29
2017-11-04T09:24:00.819Z,1003.22
2017-11-04T09:25:00.805Z,1003.22
2017-11-04T09:26:53.689Z,1003.25
2017-11-04T09:27:53.660Z,1003.23
2017-11-04T09:29:46.551Z,1003.25
2017-11-04T09:30:46.515Z,1003.27
2017-11-04T09:32:39.385Z,1003.31
2017-11-04T09:33:39.377Z,1003.27
2017-11-04T09:35:32.256Z,1003.36
2017-11-04T09:36:32.231Z,1003.35
2017-11-04T09:38:25.100Z,1003.27
2017-11-04T09:39:25.087Z,1003.27
2017-11-04T09:41:17.979Z,1003.29
2017-11-04T09:42:17.950Z,1003.33
2017-11-04T09:44:10.842Z,1003.30
2017-11-04T09:45:10.807Z,1003.27
2017-11-04T09:47:03.688Z,1003.28
2017-11-04T09:48:03.661Z,1003.25
2017-11-04T09:49:56.555Z,1003.22
2017-11-04T09:50:56.513Z,1003.15
2017-11-04T09:52:49.376Z,1003.14
2017-11-04T09:53:49.368Z,1003.11
2017-11-04T09:55:42.254Z,1003.07
2017-11-04T09:56:42.227Z,1003.09
2017-11-04T09:58:35.099Z,1003.07
2017-11-04T09:59:35.087Z,1003.10
2017-11-04T10:01:27.976Z,1003.07
2017-11-04T10:02:27.942Z,1003.04
2017-11-04T10:04:20.808Z,1003.08
2017-11-04T10:05:20.802Z,1003.08
2017-11-04T10:07:13.687Z,1003.03
2017-11-04T10:08:13.660Z,1003.06
2017-11-04T10:10:06.547Z,1003.13
2017-11-04T10:11:06.535Z,1003.10
2017-11-04T10:12:59.433Z,1003.11
2017-11-04T10:13:59.413Z,1003.08
2017-11-04T10:15:52.288Z,1003.06
2017-11-04T10:16:52.267Z,1003.08
2017-11-04T10:18:45.129Z,1003.09
2017-11-04T10:19:45.127Z,1003.09
2017-11-04T10:21:38.010Z,1003.07
2017-11-04T10:22:37.981Z,1003.10
2017-11-04T10:24:30.857Z,1003.08
2017-11-04T10:25:30.852Z,1003.07
2017-11-04T10:27:23.735Z,1003.05
2017-11-04T10:28:23.708Z,1003.03
2017-11-04T10:30:16.574Z,1002.97
2017-11-04T10:31:16.568Z,1002.90
2017-11-04T10:33:09.463Z,1002.91
2017-11-04T10:34:09.442Z,1002.93
2017-11-04T10:36:02.306Z,1002.89
2017-11-04T10:37:02.299Z,1002.87
2017-11-04T10:38:55.178Z,1002.90
2017-11-04T10:39:55.153Z,1002.85
2017-11-04T10:41:48.050Z,1002.79
2017-11-04T10:42:48.023Z,1002.78
2017-11-04T10:44:40.889Z,1002.81
2017-11-04T10:45:40.883Z,1002.84
2017-11-04T10:47:33.775Z,1002.84
2017-11-04T10:48:33.747Z,1002.87
2017-11-04T10:50:26.615Z,1002.83
2017-11-04T10:51:26.613Z,1002.81
2017-11-04T10:53:19.511Z,1002.77
2017-11-04T10:54:19.478Z,1002.79
2017-11-04T10:56:12.345Z,1002.81
2017-11-04T10:57:12.337Z,1002.77
2017-11-04T10:59:05.228Z,1002.83
2017-11-04T11:00:05.194Z,1002.86
2017-11-04T11:01:58.080Z,1002.83
2017-11-04T11:02:58.052Z,1002.80
2017-11-04T11:04:50.924Z,1002.71
2017-11-04T11:05:50.923Z,1002.66
2017-11-04T11:07:43.813Z,1002.71
2017-11-04T11:08:43.782Z,1002.74
2017-11-04T11:10:36.661Z,1002.76
2017-11-04T11:11:36.652Z,1002.73
2017-11-04T11:13:29.553Z,1002.69
2017-11-04T11:14:29.528Z,1002.71
2017-11-04T11:16:22.401Z,1002.69
2017-11-04T11:17:22.391Z,1002.71
2017-11-04T11:19:15.281Z,1002.65
2017-11-04T11:20:15.258Z,1002.53
2017-11-04T11:22:08.126Z,1002.46
2017-11-04T11:23:08.113Z,1002.46
2017-11-04T11:25:00.997Z,1002.46
2017-11-04T11:26:00.979Z,1002.42
2017-11-04T11:27:53.859Z,1002.40
2017-11-04T11:28:53.836Z,1002.41
2017-11-04T11:30:46.703Z,1002.42
2017-11-04T11:31:46.698Z,1002.47
2017-11-04T11:33:39.608Z,1002.32
2017-11-04T11:34:39.580Z,1002.24
2017-11-04T11:36:32.443Z,1002.23
2017-11-04T11:37:32.440Z,1002.24
2017-11-04T11:39:25.321Z,1002.25
2017-11-04T11:40:25.298Z,1002.24
2017-11-04T11:42:18.169Z,1002.27
2017-11-04T11:43:18.178Z,1002.27
2017-11-04T11:45:11.189Z,1002.34
2017-11-04T11:46:11.161Z,1002.39
2017-11-04T11:48:04.057Z,1002.43
2017-11-04T11:49:04.031Z,1002.42
2017-11-04T11:50:56.906Z,1002.29
2017-11-04T11:51:56.896Z,1002.27
2017-11-04T11:53:49.786Z,1002.19
2017-11-04T11:54:49.761Z,1002.15
2017-11-04T11:56:42.635Z,1002.12
2017-11-04T11:57:42.626Z,1002.14
2017-11-04T11:59:35.509Z,1002.12
2017-11-04T12:00:35.489Z,1002.14
2017-11-04T12:02:28.355Z,1002.15
2017-11-04T12:03:28.350Z,1002.14
2017-11-04T12:05:21.234Z,1002.19
2017-11-04T12:06:21.206Z,1002.22
2017-11-04T12:08:14.094Z,1002.21
2017-11-04T12:09:14.068Z,1002.23
2017-11-04T12:11:06.938Z,1002.14
2017-11-04T12:12:06.929Z,1002.12
2017-11-04T12:13:59.826Z,1002.18
2017-11-04T12:14:59.797Z,1002.17
2017-11-04T12:16:52.666Z,1002.16
2017-11-04T12:17:52.658Z,1002.20
2017-11-04T12:19:45.545Z,1002.31
2017-11-04T12:20:46.045Z,1002.27
2017-11-04T12:22:38.392Z,1002.23
2017-11-04T12:23:38.390Z,1002.16
2017-11-04T12:25:31.277Z,1002.11
2017-11-04T12:26:31.250Z,1002.15
2017-11-04T12:28:24.136Z,1002.20
2017-11-04T12:29:24.112Z,1002.18
2017-11-04T12:31:16.993Z,1002.12
2017-11-04T12:32:16.985Z,1002.08
2017-11-04T12:34:09.874Z,1002.05
2017-11-04T12:35:09.850Z,1002.00
2017-11-04T12:37:02.721Z,1001.99
2017-11-04T12:38:02.715Z,1001.99
2017-11-04T12:39:55.604Z,1001.89
2017-11-04T12:40:55.582Z,1001.94
2017-11-04T12:42:48.450Z,1001.89
2017-11-04T12:43:48.450Z,1001.94
2017-11-04T12:45:41.335Z,1001.86
2017-11-04T12:46:41.311Z,1001.82
2017-11-04T12:48:34.201Z,1001.83
2017-11-04T12:49:34.178Z,1001.83
2017-11-04T12:51:27.046Z,1001.80
2017-11-04T12:52:27.040Z,1001.83
2017-11-04T12:54:19.933Z,1001.74
2017-11-04T12:55:19.904Z,1001.70
2017-11-04T12:57:12.784Z,1001.70
2017-11-04T12:58:12.780Z,1001.73
2017-11-04T13:00:05.678Z,1001.73
2017-11-04T13:01:05.646Z,1001.72
2017-11-04T13:02:58.513Z,1001.74
2017-11-04T13:03:58.511Z,1001.76
2017-11-04T13:05:51.389Z,1001.79
2017-11-04T13:06:51.366Z,1001.75
2017-11-04T13:08:44.283Z,1001.71
2017-11-04T13:09:44.232Z,1001.66
2017-11-04T13:11:37.099Z,1001.69
2017-11-04T13:12:37.093Z,1001.67
2017-11-04T13:14:29.980Z,1001.66
2017-11-04T13:15:29.954Z,1001.65
2017-11-04T13:17:22.826Z,1001.61
2017-11-04T13:18:22.820Z,1001.58
2017-11-04T13:20:15.716Z,1001.63
2017-11-04T13:21:15.693Z,1001.61
2017-11-04T13:23:08.562Z,1001.56
2017-11-04T13:24:08.556Z,1001.53
2017-11-04T13:26:01.468Z,1001.54
2017-11-04T13:27:01.442Z,1001.53
2017-11-04T13:28:54.336Z,1001.47
2017-11-04T13:29:54.310Z,1001.47
2017-11-04T13:31:47.181Z,1001.48
2017-11-04T13:32:47.175Z,1001.48
2017-11-04T13:34:40.059Z,1001.59
2017-11-04T13:35:40.037Z,1001.56
2017-11-04T13:37:32.907Z,1001.54
2017-11-04T13:38:32.902Z,1001.50
2017-11-04T13:40:25.790Z,1001.52
2017-11-04T13:41:25.766Z,1001.52
2017-11-04T13:43:18.645Z,1001.40
2017-11-04T13:44:18.637Z,1001.47
2017-11-04T13:46:11.531Z,1001.44
2017-11-04T13:47:11.499Z,1001.48
2017-11-04T13:49:04.389Z,1001.50
2017-11-04T13:50:04.354Z,1001.45
2017-11-04T13:51:57.235Z,1001.48
2017-11-04T13:52:57.234Z,1001.47
2017-11-04T13:54:50.118Z,1001.48
2017-11-04T13:55:50.096Z,1001.49
2017-11-04T13:57:42.965Z,1001.41
2017-11-04T13:58:42.959Z,1001.42
2017-11-04T14:00:35.849Z,1001.36
2017-11-04T14:01:35.832Z,1001.39
2017-11-04T14:03:28.700Z,1001.38
2017-11-04T14:04:28.692Z,1001.42
2017-11-04T14:06:21.588Z,1001.42
2017-11-04T14:07:21.561Z,1001.42
2017-11-04T14:09:14.449Z,1001.42
2017-11-04T14:10:14.426Z,1001.43
2017-11-04T14:12:07.293Z,1001.40
2017-11-04T14:13:07.285Z,1001.41
2017-11-04T14:15:00.173Z,1001.37
2017-11-04T14:16:00.162Z,1001.42
2017-11-04T14:17:53.018Z,1001.41
2017-11-04T14:18:53.014Z,1001.38
2017-11-04T14:20:45.902Z,1001.35
2017-11-04T14:21:45.878Z,1001.34
2017-11-04T14:23:38.751Z,1001.33
2017-11-04T14:24:38.746Z,1001.31
2017-11-04T14:26:31.630Z,1001.27
2017-11-04T14:27:31.612Z,1001.28
2017-11-04T14:29:24.498Z,1001.29
2017-11-04T14:30:24.471Z,1001.29
2017-11-04T14:32:17.348Z,1001.36
2017-11-04T14:33:17.342Z,1001.35
2017-11-04T14:35:10.250Z,1001.38
2017-11-04T14:36:10.224Z,1001.32
2017-11-04T14:38:03.093Z,1001.31
2017-11-04T14:39:03.088Z,1001.31
2017-11-04T14:40:55.975Z,1001.26
2017-11-04T14:41:55.950Z,1001.28
2017-11-04T14:43:48.847Z,1001.24
2017-11-04T14:44:48.818Z,1001.24
2017-11-04T14:46:41.686Z,1001.21
2017-11-04T14:47:41.679Z,1001.17
2017-11-04T14:49:34.576Z,1001.19
2017-11-04T14:50:34.548Z,1001.10
2017-11-04T14:52:27.414Z,1001.13
2017-11-04T14:53:27.410Z,1001.14
2017-11-04T14:55:20.305Z,1001.13
2017-11-04T14:56:20.276Z,1001.14
2017-11-04T14:58:13.152Z,1001.12
2017-11-04T14:59:13.150Z,1001.11
2017-11-04T15:01:06.032Z,1001.05
2017-11-04T15:02:06.015Z,1001.07
2017-11-04T15:03:58.925Z,1001.00
2017-11-04T15:04:58.882Z,1000.97
2017-11-04T15:06:51.751Z,1001.00
2017-11-04T15:07:51.745Z,1000.95
2017-11-04T15:09:44.632Z,1000.98
2017-11-04T15:10:44.606Z,1000.99
2017-11-04T15:12:37.476Z,1000.98
2017-11-04T15:13:37.469Z,1000.97
2017-11-04T15:15:30.358Z,1000.94
2017-11-04T15:16:30.360Z,1000.92
2017-11-04T15:18:23.208Z,1000.96
2017-11-04T15:19:23.204Z,1000.97
2017-11-04T15:21:16.092Z,1000.95
2017-11-04T15:22:16.071Z,1000.94
2017-11-04T15:24:08.978Z,1000.94
2017-11-04T15:25:08.955Z,1000.92
2017-11-04T15:27:01.946Z,1000.90
2017-11-04T15:28:02.817Z,1000.94
2017-11-04T15:29:54.826Z,1000.96
2017-11-04T15:30:54.805Z,1000.97
2017-11-04T15:32:47.674Z,1000.93
2017-11-04T15:33:47.676Z,1000.96
2017-11-04T15:35:40.575Z,1000.91
2017-11-04T15:36:40.550Z,1000.88
2017-11-04T15:38:33.419Z,1000.86
2017-11-04T15:39:33.406Z,1000.86
2017-11-04T15:41:26.416Z,1000.85
2017-11-04T15:42:26.284Z,1000.83
2017-11-04T15:44:19.176Z,1000.82
2017-11-04T15:45:19.151Z,1000.81
2017-11-04T15:47:12.018Z,1000.74
2017-11-04T15:48:12.012Z,1000.75
2017-11-04T15:50:04.906Z,1000.71
2017-11-04T15:51:04.886Z,1000.71
2017-11-04T15:52:57.784Z,1000.70
2017-11-04T15:53:57.736Z,1000.72
2017-11-04T15:55:50.631Z,1000.73
2017-11-04T15:56:50.607Z,1000.78
2017-11-04T15:58:43.475Z,1000.81
2017-11-04T15:59:43.468Z,1000.82
2017-11-04T16:01:36.363Z,1000.87
2017-11-04T16:02:36.341Z,1000.83
2017-11-04T16:04:29.223Z,1000.84
2017-11-04T16:05:29.197Z,1000.83
2017-11-04T16:07:22.064Z,1000.84
2017-11-04T16:08:22.056Z,1000.83
2017-11-04T16:10:14.952Z,1000.80
2017-11-04T16:11:14.929Z,1000.76
2017-11-04T16:13:07.793Z,1000.76
2017-11-04T16:14:07.790Z,1000.75
2017-11-04T16:16:00.671Z,1000.73
2017-11-04T16:17:00.646Z,1000.78
2017-11-04T16:18:53.512Z,1000.75
2017-11-04T16:19:53.506Z,1000.71
2017-11-04T16:21:46.389Z,1000.70
2017-11-04T16:22:46.371Z,1000.66
2017-11-04T16:24:39.253Z,1000.63
2017-11-04T16:25:39.231Z,1000.63
2017-11-04T16:27:32.098Z,1000.67
2017-11-04T16:28:32.094Z,1000.64
2017-11-04T16:30:24.983Z,1000.62
2017-11-04T16:31:24.953Z,1000.65
2017-11-04T16:33:17.820Z,1000.60
2017-11-04T16:34:17.812Z,1000.58
2017-11-04T16:36:10.721Z,1000.56
2017-11-04T16:37:10.692Z,1000.58
2017-11-04T16:39:03.572Z,1000.58
2017-11-04T16:40:03.565Z,1000.60
2017-11-04T16:41:56.450Z,1000.62
2017-11-04T16:42:56.426Z,1000.71
2017-11-04T16:44:49.316Z,1000.75
2017-11-04T16:45:49.287Z,1000.73
2017-11-04T16:47:42.153Z,1000.82
2017-11-04T16:48:42.147Z,1000.89
2017-11-04T16:50:35.035Z,1000.85
2017-11-04T16:51:35.010Z,1000.86
2017-11-04T16:53:27.877Z,1000.84
2017-11-04T16:54:27.865Z,1000.86
2017-11-04T16:56:20.849Z,1000.88
2017-11-04T16:57:20.728Z,1000.86
2017-11-04T16:59:13.597Z,1000.84
2017-11-04T17:00:13.583Z,1000.84
2017-11-04T17:02:06.466Z,1000.90
2017-11-04T17:03:06.439Z,1000.87
2017-11-04T17:04:59.321Z,1000.85
2017-11-04T17:05:59.297Z,1000.81
2017-11-04T17:07:52.163Z,1000.80
2017-11-04T17:08:52.154Z,1000.74
2017-11-04T17:10:45.050Z,1000.74
2017-11-04T17:11:45.021Z,1000.68
2017-11-04T17:13:37.887Z,1000.65
2017-11-04T17:14:37.877Z,1000.69
2017-11-04T17:16:30.764Z,1000.66
2017-11-04T17:17:30.731Z,1000.67
2017-11-04T17:19:23.626Z,1000.70
2017-11-04T17:20:23.601Z,1000.66
2017-11-04T17:22:16.463Z,1000.66
2017-11-04T17:23:16.458Z,1000.68
2017-11-04T17:25:09.337Z,1000.66